Time;durP1;ratioP1;P1;durP2;ratioP2;P2;SDS_P1;SDS_P2;PMS_P1;PMS_P2;Temp;Humidity;BMP_temperature;BMP_pressure;BME280_temperature;BME280_humidity;BME280_pressure;Samples;Min_cycle;Max_cycle;Signal;HPM_P1;HPM_P2
2021/10/08 00:02:00;;;;;;;2.40;2.08;;;;;;;9.14;78.11;94266.69;5013033;28;20041;-76
2021/10/08 00:04:25;;;;;;;3.03;2.10;;;;;;;9.24;77.86;94254.00;5012011;28;21080;-76
2021/10/08 00:06:50;;;;;;;2.15;1.80;;;;;;;8.96;77.84;94233.78;5011763;28;20033;-75
2021/10/08 00:09:16;;;;;;;2.35;1.63;;;;;;;8.99;78.30;94260.53;5016253;28;20384;-77
2021/10/08 00:11:42;;;;;;;2.10;1.90;;;;;;;8.99;78.30;94259.75;5009621;28;20041;-76
2021/10/08 00:14:07;;;;;;;1.90;1.45;;;;;;;8.98;79.06;94250.19;5014167;28;20044;-76
2021/10/08 00:16:33;;;;;;;2.03;1.45;;;;;;;9.35;77.95;94252.72;5014332;28;20656;-76
2021/10/08 00:18:58;;;;;;;2.85;1.90;;;;;;;9.51;76.32;94239.16;5011837;28;20090;-77
2021/10/08 00:21:25;;;;;;;2.42;1.67;;;;;;;9.53;74.97;94237.00;5014504;28;20091;-77
2021/10/08 00:23:51;;;;;;;2.15;1.55;;;;;;;9.66;74.81;94262.78;5013317;28;20025;-75
2021/10/08 00:26:18;;;;;;;1.75;1.65;;;;;;;9.80;74.38;94258.22;5014446;28;20599;-75
2021/10/08 00:28:43;;;;;;;2.13;1.60;;;;;;;9.52;74.20;94248.72;5020165;28;20081;-77
2021/10/08 00:31:09;;;;;;;2.55;1.70;;;;;;;9.48;74.83;94240.56;5016246;28;20029;-75
2021/10/08 00:33:34;;;;;;;2.13;1.92;;;;;;;9.44;74.11;94245.66;5010180;28;20124;-75
2021/10/08 00:35:59;;;;;;;1.90;1.60;;;;;;;9.36;74.21;94227.75;5011803;28;20038;-75
2021/10/08 00:38:25;;;;;;;2.33;1.73;;;;;;;9.24;75.04;94240.72;5011758;28;20543;-76
2021/10/08 00:40:50;;;;;;;2.13;1.70;;;;;;;9.34;75.29;94235.22;5011565;28;20051;-73
2021/10/08 00:43:21;;;;;;;2.42;1.95;;;;;;;9.48;75.17;94240.56;5014834;28;20036;-76
2021/10/08 00:45:47;;;;;;;2.05;1.40;;;;;;;9.44;74.62;94219.09;5011196;28;20114;-76
2021/10/08 00:48:14;;;;;;;2.00;1.75;;;;;;;9.05;76.11;94218.75;5006675;28;20504;-74
2021/10/08 00:50:43;;;;;;;3.45;2.20;;;;;;;9.17;75.90;94213.78;5006667;28;20053;-75
2021/10/08 00:53:09;;;;;;;2.40;1.42;;;;;;;9.31;75.44;94219.09;5014743;28;20974;-75
2021/10/08 00:55:39;;;;;;;2.60;1.40;;;;;;;9.29;75.55;94237.22;5009696;28;20033;-76
2021/10/08 00:58:05;;;;;;;2.00;1.35;;;;;;;8.84;76.47;94194.47;5015027;28;20622;-74
2021/10/08 01:00:31;;;;;;;2.13;1.50;;;;;;;9.02;77.01;94236.06;5015891;28;20049;-76
2021/10/08 01:02:56;;;;;;;2.20;1.65;;;;;;;8.95;77.51;94240.19;5010957;28;20394;-77
2021/10/08 01:05:22;;;;;;;2.90;1.80;;;;;;;9.14;77.25;94234.84;5004754;28;20815;-72
2021/10/08 01:07:49;;;;;;;2.30;1.55;;;;;;;9.34;76.54;94229.91;5004380;28;20832;-77
2021/10/08 01:10:15;;;;;;;2.30;1.77;;;;;;;9.33;76.50;94222.25;5014951;28;20171;-76
2021/10/08 01:12:40;;;;;;;2.53;1.52;;;;;;;9.38;76.49;94209.69;5010648;28;20033;-76
2021/10/08 01:15:07;;;;;;;2.30;1.77;;;;;;;9.14;77.32;94203.78;5010686;28;20048;-76
2021/10/08 01:17:32;;;;;;;2.13;1.70;;;;;;;9.24;77.72;94219.50;5017154;28;20096;-76
2021/10/08 01:20:08;;;;;;;2.03;1.80;;;;;;;9.10;77.96;94226.63;5004273;28;20136;-75
2021/10/08 01:22:33;;;;;;;2.33;1.75;;;;;;;9.01;78.25;94223.06;5018573;28;20056;-73
2021/10/08 01:24:59;;;;;;;2.58;1.80;;;;;;;9.20;77.95;94234.44;5015857;28;20022;-74
2021/10/08 01:27:24;;;;;;;2.90;1.52;;;;;;;8.86;79.09;94232.09;5017169;28;20873;-76
2021/10/08 01:29:56;;;;;;;1.98;1.50;;;;;;;8.77;79.01;94209.97;5010159;28;20060;-76
2021/10/08 01:32:23;;;;;;;2.28;1.38;;;;;;;8.64;79.55;94220.56;5033515;28;20029;-75
2021/10/08 01:34:48;;;;;;;2.00;1.50;;;;;;;8.75;79.96;94227.28;5011154;28;20049;-74
2021/10/08 01:37:15;;;;;;;2.40;1.40;;;;;;;8.64;80.45;94217.91;5013649;28;20032;-75
2021/10/08 01:39:41;;;;;;;2.17;1.60;;;;;;;8.44;81.16;94195.16;5014007;28;20045;-77
2021/10/08 01:42:07;;;;;;;2.15;1.80;;;;;;;8.64;81.05;94204.63;5016570;28;20026;-76
2021/10/08 01:44:32;;;;;;;2.20;1.70;;;;;;;8.76;80.18;94207.59;5016511;28;20132;-77
2021/10/08 01:46:58;;;;;;;1.60;1.50;;;;;;;8.62;80.16;94199.63;5009498;28;20398;-73
2021/10/08 01:49:24;;;;;;;2.50;1.80;;;;;;;8.76;79.39;94197.00;5018809;28;20040;-75
2021/10/08 01:51:49;;;;;;;3.08;2.25;;;;;;;8.57;80.27;94200.50;5012227;28;20394;-74
2021/10/08 01:54:14;;;;;;;2.03;1.58;;;;;;;8.46;80.88;94209.69;5017211;28;20482;-76
2021/10/08 01:56:44;;;;;;;2.30;1.58;;;;;;;8.59;81.06;94208.97;5010383;28;20581;-76
2021/10/08 01:59:10;;;;;;;2.03;1.40;;;;;;;8.97;80.07;94216.78;5008458;28;20041;-75
2021/10/08 02:01:35;;;;;;;2.22;1.60;;;;;;;8.95;79.39;94218.97;5011135;28;20080;-74
2021/10/08 02:04:01;;;;;;;2.78;1.67;;;;;;;9.10;78.87;94215.22;5006811;28;20029;-75
2021/10/08 02:06:26;;;;;;;2.55;1.70;;;;;;;8.98;79.04;94202.44;5018114;28;20034;-76
2021/10/08 02:08:52;;;;;;;2.13;1.77;;;;;;;9.12;78.96;94208.59;5008214;28;20037;-76
2021/10/08 02:11:17;;;;;;;2.33;1.70;;;;;;;8.89;79.00;94212.16;5011715;28;20057;-76
2021/10/08 02:13:42;;;;;;;2.35;1.60;;;;;;;8.72;79.66;94193.34;5013901;28;21750;-76
2021/10/08 02:16:08;;;;;;;2.70;1.73;;;;;;;8.85;79.72;94227.84;5018201;28;20022;-76
2021/10/08 02:18:34;;;;;;;1.90;1.65;;;;;;;8.88;79.23;94216.69;5009661;28;20148;-75
2021/10/08 02:20:59;;;;;;;3.35;1.70;;;;;;;8.94;79.19;94215.53;5012761;28;20160;-72
2021/10/08 02:23:25;;;;;;;2.78;1.90;;;;;;;8.49;80.92;94197.72;5012623;28;20033;-75
2021/10/08 02:25:51;;;;;;;3.03;1.95;;;;;;;8.58;80.59;94196.78;5012284;28;20957;-75
2021/10/08 02:28:16;;;;;;;3.15;2.00;;;;;;;8.55;80.84;94210.63;5012413;28;20487;-75
2021/10/08 02:30:42;;;;;;;2.70;2.03;;;;;;;8.47;81.05;94184.75;5013699;28;20033;-76
2021/10/08 02:33:07;;;;;;;3.20;2.05;;;;;;;8.50;80.61;94186.84;5010477;28;20542;-76
2021/10/08 02:35:33;;;;;;;2.15;1.70;;;;;;;8.54;80.69;94208.25;5011628;28;20132;-76
2021/10/08 02:37:58;;;;;;;4.03;2.17;;;;;;;8.55;81.34;94212.47;5015671;28;20038;-76
2021/10/08 02:40:24;;;;;;;3.13;1.92;;;;;;;8.41;81.24;94185.16;5015492;28;20083;-75
2021/10/08 02:42:49;;;;;;;2.85;1.98;;;;;;;8.74;80.69;94209.78;5019961;28;20041;-76
2021/10/08 02:45:15;;;;;;;5.60;3.00;;;;;;;8.87;79.53;94185.13;5018632;28;20033;-76
2021/10/08 02:47:41;;;;;;;2.67;2.10;;;;;;;8.93;79.26;94195.38;5014881;28;20033;-77
2021/10/08 02:50:07;;;;;;;2.92;2.20;;;;;;;8.86;79.39;94175.59;5018425;28;20042;-76
2021/10/08 02:52:32;;;;;;;3.17;1.88;;;;;;;9.11;78.52;94193.75;5016311;28;20032;-75
2021/10/08 02:54:58;;;;;;;4.07;2.35;;;;;;;8.71;79.43;94192.56;5018061;28;20025;-75
2021/10/08 02:57:23;;;;;;;2.15;1.70;;;;;;;8.57;80.37;94197.84;5020303;28;20609;-77
2021/10/08 02:59:48;;;;;;;2.22;1.67;;;;;;;8.63;80.03;94176.56;5018993;28;20041;-76
2021/10/08 03:02:14;;;;;;;2.75;1.73;;;;;;;8.40;80.97;94191.53;5020863;28;20042;-76
2021/10/08 03:04:41;;;;;;;2.40;1.67;;;;;;;8.53;80.68;94182.81;5017018;28;20546;-75
2021/10/08 03:07:07;;;;;;;3.08;1.80;;;;;;;8.84;79.59;94199.78;5021244;28;20438;-76
2021/10/08 03:09:32;;;;;;;2.83;1.80;;;;;;;9.00;78.82;94205.56;5017296;28;20029;-76
2021/10/08 03:11:58;;;;;;;3.88;2.20;;;;;;;8.79;78.67;94191.91;5016991;28;20247;-76
2021/10/08 03:14:23;;;;;;;2.30;1.40;;;;;;;8.79;79.29;94201.72;5017345;28;20041;-77
2021/10/08 03:16:49;;;;;;;3.17;1.50;;;;;;;8.71;79.41;94184.63;5018250;28;20616;-76
2021/10/08 03:19:14;;;;;;;3.90;2.58;;;;;;;8.35;80.91;94186.28;5018073;28;20535;-76
2021/10/08 03:21:40;;;;;;;3.60;2.08;;;;;;;8.43;80.57;94210.28;5015038;28;20049;-76
2021/10/08 03:24:05;;;;;;;5.10;2.05;;;;;;;8.41;80.27;94196.50;5018149;28;20083;-76
2021/10/08 03:26:30;;;;;;;5.40;2.47;;;;;;;8.33;80.50;94178.63;5016008;28;20056;-76
2021/10/08 03:28:56;;;;;;;5.55;2.75;;;;;;;8.45;79.95;94168.38;5015358;28;20041;-76
2021/10/08 03:31:21;;;;;;;5.85;2.90;;;;;;;8.42;80.50;94206.03;5019048;28;20025;-75
2021/10/08 03:33:47;;;;;;;5.75;2.10;;;;;;;8.42;80.38;94192.78;5015213;28;20438;-75
2021/10/08 03:36:34;;;;;;;7.97;2.90;;;;;;;8.47;80.50;94190.06;5019978;28;20033;-73
2021/10/08 03:38:59;;;;;;;4.30;2.15;;;;;;;8.56;79.79;94183.00;5015993;28;20042;-77
2021/10/08 03:41:26;;;;;;;4.22;2.45;;;;;;;8.31;79.56;94141.03;5015382;28;20119;-76
2021/10/08 03:43:54;;;;;;;3.88;2.33;;;;;;;8.59;79.79;94198.34;5017732;28;20689;-75
2021/10/08 03:46:20;;;;;;;4.13;2.47;;;;;;;8.49;80.16;94179.97;5016936;28;20040;-77
2021/10/08 03:51:27;;;;;;;6.97;2.75;;;;;;;8.72;79.62;94191.50;5018437;28;20121;-77
2021/10/08 03:53:53;;;;;;;5.60;3.00;;;;;;;8.71;79.95;94202.38;5018729;28;20591;-77
2021/10/08 03:56:18;;;;;;;5.00;2.72;;;;;;;8.77;80.10;94201.22;5016541;28;20160;-74
2021/10/08 03:58:44;;;;;;;3.78;2.58;;;;;;;8.52;80.63;94183.88;5018559;28;20164;-75
2021/10/08 04:01:09;;;;;;;4.10;2.42;;;;;;;8.73;79.87;94197.59;5017143;28;20559;-76
2021/10/08 04:03:35;;;;;;;4.10;2.58;;;;;;;8.83;79.34;94184.16;5019643;28;20041;-76
2021/10/08 04:06:00;;;;;;;4.63;2.40;;;;;;;8.81;79.41;94183.66;5012141;28;20444;-72
2021/10/08 04:08:26;;;;;;;2.85;1.75;;;;;;;8.25;80.77;94197.06;5016253;28;20049;-75
2021/10/08 04:10:51;;;;;;;2.78;1.88;;;;;;;8.17;81.10;94155.31;5016666;28;20041;-73
2021/10/08 04:13:17;;;;;;;2.58;1.67;;;;;;;8.62;80.43;94217.38;5019128;28;20033;-73
2021/10/08 04:15:43;;;;;;;4.65;2.25;;;;;;;8.34;80.95;94198.75;5016977;28;20436;-75
2021/10/08 04:18:11;;;;;;;2.47;1.85;;;;;;;8.42;81.20;94227.25;5016818;28;20097;-75
2021/10/08 04:20:36;;;;;;;2.83;1.40;;;;;;;8.10;81.51;94209.47;5015207;28;20061;-74
2021/10/08 04:23:03;;;;;;;3.30;1.70;;;;;;;8.23;82.17;94223.81;5014046;28;20049;-76
2021/10/08 04:25:28;;;;;;;3.40;1.90;;;;;;;8.05;82.49;94209.53;5016344;28;20111;-76
2021/10/08 04:27:54;;;;;;;2.03;1.40;;;;;;;8.23;82.66;94221.19;5016720;28;20514;-76
2021/10/08 04:30:19;;;;;;;2.72;1.33;;;;;;;8.21;82.42;94223.34;5015343;28;20493;-76
2021/10/08 04:32:44;;;;;;;2.90;1.45;;;;;;;7.82;83.21;94180.47;5017952;28;20045;-77
2021/10/08 04:35:10;;;;;;;2.40;1.30;;;;;;;8.14;83.10;94222.91;5016683;28;20545;-76
2021/10/08 04:37:36;;;;;;;1.75;1.40;;;;;;;8.18;82.75;94233.72;5016077;28;20040;-73
2021/10/08 04:40:03;;;;;;;3.60;1.73;;;;;;;7.96;83.67;94221.06;5013584;28;20337;-77
2021/10/08 04:42:28;;;;;;;2.67;1.60;;;;;;;7.66;84.20;94212.41;5017396;28;20037;-76
2021/10/08 04:44:54;;;;;;;2.67;1.45;;;;;;;7.93;84.17;94232.22;5011690;28;20562;-76
2021/10/08 04:47:19;;;;;;;1.90;1.25;;;;;;;7.77;84.55;94222.91;5016577;28;20415;-76
2021/10/08 04:49:44;;;;;;;2.92;1.30;;;;;;;8.10;83.91;94227.22;5017006;28;20096;-76
2021/10/08 04:52:10;;;;;;;2.80;1.67;;;;;;;8.30;82.83;94216.31;5016385;28;20025;-76
2021/10/08 04:54:37;;;;;;;1.95;1.42;;;;;;;8.35;82.44;94220.75;5015277;28;20424;-72
2021/10/08 04:57:04;;;;;;;3.40;1.58;;;;;;;8.13;82.81;94221.31;5017655;28;20033;-77
2021/10/08 04:59:29;;;;;;;3.30;1.85;;;;;;;8.03;83.79;94224.13;5013964;28;20048;-76
2021/10/08 05:01:55;;;;;;;3.85;2.28;;;;;;;8.19;83.71;94225.47;5013246;28;20034;-71
2021/10/08 05:04:20;;;;;;;3.65;1.90;;;;;;;8.01;83.93;94221.78;5015761;28;20103;-76
2021/10/08 05:06:46;;;;;;;3.92;2.30;;;;;;;8.04;84.04;94215.09;5015983;28;20453;-74
2021/10/08 05:09:11;;;;;;;3.22;2.15;;;;;;;7.97;84.56;94217.34;5013381;28;20045;-76
2021/10/08 05:11:37;;;;;;;3.65;2.25;;;;;;;8.10;84.39;94220.06;5013089;28;20140;-77
2021/10/08 05:14:02;;;;;;;3.53;2.28;;;;;;;8.01;83.67;94203.25;5014079;28;20470;-77
2021/10/08 05:16:29;;;;;;;4.88;2.47;;;;;;;8.27;83.62;94224.03;5015091;28;20029;-75
2021/10/08 05:18:55;;;;;;;4.63;2.78;;;;;;;8.43;82.96;94218.22;5014089;28;20057;-76
2021/10/08 05:21:20;;;;;;;4.88;3.05;;;;;;;8.31;82.35;94207.31;5015203;28;20400;-75
2021/10/08 05:23:45;;;;;;;7.10;2.78;;;;;;;8.36;82.68;94225.78;5014822;28;20506;-76
2021/10/08 05:26:11;;;;;;;5.38;3.25;;;;;;;8.33;82.54;94221.03;5015031;28;20132;-75
2021/10/08 05:28:36;;;;;;;3.78;2.58;;;;;;;8.12;83.29;94219.75;5016372;28;20106;-77
2021/10/08 05:31:02;;;;;;;4.90;3.10;;;;;;;8.19;83.47;94222.03;5014988;28;20392;-76
2021/10/08 05:33:27;;;;;;;3.45;2.15;;;;;;;7.99;84.38;94225.78;5017341;28;20040;-75
2021/10/08 05:35:53;;;;;;;5.03;2.65;;;;;;;8.15;84.17;94235.88;5012418;28;20057;-75
2021/10/08 05:38:19;;;;;;;3.30;1.98;;;;;;;7.91;84.56;94210.53;5015163;28;20045;-77
2021/10/08 05:40:47;;;;;;;4.53;2.22;;;;;;;7.95;84.06;94200.94;5014118;28;20074;-77
2021/10/08 05:43:13;;;;;;;5.20;3.05;;;;;;;7.88;84.21;94203.13;5009844;28;20021;-75
2021/10/08 05:45:38;;;;;;;3.08;2.25;;;;;;;7.81;84.57;94203.50;5018024;28;20041;-76
2021/10/08 05:48:04;;;;;;;4.05;2.53;;;;;;;7.62;85.36;94208.78;5013119;28;20041;-76
2021/10/08 05:50:29;;;;;;;5.57;3.85;;;;;;;7.80;85.50;94227.63;5014691;28;20087;-76
2021/10/08 05:52:55;;;;;;;5.35;2.35;;;;;;;7.80;85.48;94214.38;5015324;28;20642;-77
2021/10/08 05:55:22;;;;;;;4.03;2.17;;;;;;;7.87;85.62;94222.78;5014574;28;20033;-77
2021/10/08 05:57:47;;;;;;;4.50;2.50;;;;;;;8.02;85.04;94222.56;5014443;28;20448;-76
2021/10/08 06:00:13;;;;;;;6.15;2.58;;;;;;;7.97;84.61;94196.16;5013739;28;20128;-76
2021/10/08 06:02:39;;;;;;;3.10;2.50;;;;;;;8.14;84.24;94212.31;5016759;28;20469;-77
2021/10/08 06:05:05;;;;;;;6.30;1.90;;;;;;;7.94;84.25;94191.41;5013982;28;20128;-76
2021/10/08 06:07:30;;;;;;;2.97;1.88;;;;;;;7.95;84.44;94208.88;5005605;28;20033;-75
2021/10/08 06:09:56;;;;;;;4.25;1.60;;;;;;;7.65;85.28;94205.53;5015491;28;20057;-75
2021/10/08 06:12:21;;;;;;;3.53;1.73;;;;;;;7.65;85.93;94221.44;5002465;28;20731;-76
2021/10/08 06:14:46;;;;;;;1.95;1.55;;;;;;;7.48;86.11;94202.59;5009091;28;20038;-76
2021/10/08 06:17:12;;;;;;;3.88;1.58;;;;;;;7.71;85.59;94201.75;5011071;28;20041;-76
2021/10/08 06:19:40;;;;;;;3.22;1.90;;;;;;;7.87;85.16;94222.78;5008654;28;20025;-77
2021/10/08 06:22:07;;;;;;;2.38;1.55;;;;;;;7.77;85.20;94213.09;5012252;28;20060;-75
2021/10/08 06:24:33;;;;;;;3.65;2.20;;;;;;;8.12;84.75;94217.09;5015083;28;20053;-77
2021/10/08 06:26:58;;;;;;;2.38;1.55;;;;;;;7.87;84.78;94220.13;5011633;28;20491;-77
2021/10/08 06:29:24;;;;;;;3.28;1.52;;;;;;;7.79;85.19;94220.75;5015466;28;20034;-76
2021/10/08 06:31:49;;;;;;;2.30;1.50;;;;;;;7.75;85.27;94215.25;5012974;28;20415;-76
2021/10/08 06:34:15;;;;;;;3.72;1.58;;;;;;;7.90;85.31;94232.78;5012045;28;20382;-76
2021/10/08 06:36:40;;;;;;;2.58;1.70;;;;;;;7.84;85.28;94225.97;5015551;28;20073;-74
2021/10/08 06:39:06;;;;;;;2.30;1.20;;;;;;;7.79;85.39;94229.47;5015087;28;20043;-77
2021/10/08 06:41:31;;;;;;;2.67;1.27;;;;;;;7.73;85.17;94211.31;5013785;28;20065;-76
2021/10/08 06:43:57;;;;;;;1.88;1.20;;;;;;;7.68;85.60;94234.09;5010794;28;20034;-76
2021/10/08 06:46:22;;;;;;;2.10;1.40;;;;;;;7.78;85.84;94232.44;5012146;28;20048;-77
2021/10/08 06:48:48;;;;;;;3.40;1.92;;;;;;;7.61;86.09;94224.94;5014037;28;20046;-75
2021/10/08 06:51:13;;;;;;;1.65;1.20;;;;;;;7.61;86.64;94222.28;5014438;28;20040;-76
2021/10/08 06:53:39;;;;;;;3.08;1.85;;;;;;;7.83;86.41;94237.63;5010218;28;20038;-73
2021/10/08 06:56:04;;;;;;;1.85;1.75;;;;;;;7.83;85.84;94232.34;5010741;28;20037;-76
2021/10/08 06:58:30;;;;;;;2.92;1.23;;;;;;;7.88;85.81;94243.66;5012184;28;20044;-72
2021/10/08 07:00:55;;;;;;;3.78;2.30;;;;;;;7.92;85.91;94234.09;5009561;28;20116;-74
2021/10/08 07:03:22;;;;;;;1.98;1.23;;;;;;;7.80;85.58;94239.00;5017363;28;20052;-76
2021/10/08 07:05:47;;;;;;;1.77;1.20;;;;;;;7.68;85.79;94218.19;5012537;28;20916;-77
2021/10/08 07:08:13;;;;;;;4.95;1.80;;;;;;;8.01;85.32;94239.53;5010499;28;20049;-79
2021/10/08 07:10:39;;;;;;;2.83;1.40;;;;;;;7.75;85.35;94220.53;5005174;28;20068;-76
2021/10/08 07:13:05;;;;;;;4.25;1.60;;;;;;;8.05;85.50;94251.13;5010683;28;20025;-77
2021/10/08 07:15:31;;;;;;;2.20;1.48;;;;;;;8.00;85.52;94253.84;5011153;28;20069;-76
2021/10/08 07:17:56;;;;;;;2.08;1.42;;;;;;;7.93;85.42;94240.16;5007849;28;20594;-76
2021/10/08 07:20:24;;;;;;;1.58;1.33;;;;;;;8.05;85.24;94257.22;5012722;28;20315;-76
2021/10/08 07:22:51;;;;;;;1.98;1.60;;;;;;;8.16;84.96;94263.16;5004864;28;20532;-77
2021/10/08 07:25:17;;;;;;;2.92;1.60;;;;;;;8.10;84.85;94274.91;5006915;28;20476;-74
2021/10/08 07:27:45;;;;;;;6.32;1.67;;;;;;;8.27;84.59;94272.53;5010775;28;20041;-74
2021/10/08 07:30:11;;;;;;;3.00;1.35;;;;;;;8.34;83.79;94272.97;5010448;28;20029;-76
2021/10/08 07:32:37;;;;;;;1.60;1.23;;;;;;;8.50;83.36;94279.63;5013236;28;20084;-78
2021/10/08 07:35:04;;;;;;;2.47;1.50;;;;;;;8.55;82.76;94281.41;5009583;28;20042;-76
2021/10/08 07:37:29;;;;;;;1.98;1.13;;;;;;;8.56;82.66;94278.44;5009041;28;20032;-74
2021/10/08 07:39:57;;;;;;;1.70;1.33;;;;;;;8.57;82.90;94285.34;5013418;28;20025;-77
2021/10/08 07:42:24;;;;;;;1.98;1.30;;;;;;;8.70;82.45;94298.94;5009090;28;20492;-77
2021/10/08 07:44:49;;;;;;;0.95;0.70;;;;;;;8.72;80.88;94291.47;5014839;28;20542;-77
2021/10/08 07:47:16;;;;;;;0.80;0.80;;;;;;;8.73;79.79;94291.19;5010800;28;20689;-77
2021/10/08 07:49:41;;;;;;;1.15;0.90;;;;;;;8.69;78.87;94287.56;5014685;28;20029;-76
2021/10/08 07:52:07;;;;;;;2.45;0.88;;;;;;;8.78;78.52;94306.22;5007963;28;20768;-77
2021/10/08 07:54:32;;;;;;;1.98;1.42;;;;;;;9.06;78.40;94312.41;5014445;28;20499;-76
2021/10/08 07:56:58;;;;;;;0.80;0.80;;;;;;;9.03;77.96;94308.47;5015108;28;20037;-73
2021/10/08 07:59:23;;;;;;;2.67;0.80;;;;;;;8.87;78.14;94336.31;5011447;28;21051;-77
2021/10/08 08:01:49;;;;;;;1.05;0.90;;;;;;;8.99;77.75;94328.72;5015100;28;20508;-77
2021/10/08 08:04:14;;;;;;;0.68;0.68;;;;;;;8.67;77.65;94337.41;5016319;28;20476;-77
2021/10/08 08:06:39;;;;;;;0.93;0.80;;;;;;;9.08;77.16;94340.25;5013405;28;20076;-77
2021/10/08 08:09:05;;;;;;;0.50;0.50;;;;;;;9.04;76.52;94333.94;5015197;28;20033;-77
2021/10/08 08:11:31;;;;;;;0.70;0.60;;;;;;;9.13;75.79;94318.97;5010299;28;20040;-75
2021/10/08 08:13:56;;;;;;;0.55;0.55;;;;;;;9.54;74.54;94344.78;5008855;28;20411;-77
2021/10/08 08:16:22;;;;;;;0.82;0.60;;;;;;;9.47;74.56;94349.69;5013704;28;20796;-78
2021/10/08 08:18:47;;;;;;;0.60;0.60;;;;;;;9.65;73.91;94341.66;5011577;28;20042;-77
2021/10/08 08:21:13;;;;;;;2.45;0.63;;;;;;;9.29;74.27;94314.19;5006674;28;20156;-76
2021/10/08 08:23:38;;;;;;;0.85;0.70;;;;;;;9.54;73.46;94329.63;5005402;28;20463;-77
2021/10/08 08:26:03;;;;;;;2.50;1.00;;;;;;;9.65;73.69;94356.81;5010867;28;20045;-77
2021/10/08 08:28:29;;;;;;;0.70;0.70;;;;;;;9.92;72.85;94351.53;5010182;28;20025;-76
2021/10/08 08:30:56;;;;;;;0.60;0.60;;;;;;;10.10;71.69;94357.81;5013258;28;20745;-76
2021/10/08 08:33:21;;;;;;;0.60;0.60;;;;;;;10.18;72.42;94357.88;5014319;28;20030;-75
2021/10/08 08:35:48;;;;;;;1.08;0.98;;;;;;;10.04;71.82;94357.13;5009984;28;20048;-78
2021/10/08 08:38:13;;;;;;;1.38;0.70;;;;;;;9.93;71.46;94374.34;4998106;28;20043;-76
2021/10/08 08:40:39;;;;;;;0.90;0.80;;;;;;;9.94;71.76;94381.22;5009422;28;20743;-76
2021/10/08 08:43:05;;;;;;;1.20;0.93;;;;;;;9.73;71.53;94353.47;5013073;28;20031;-77
2021/10/08 08:45:33;;;;;;;0.77;0.70;;;;;;;9.85;71.31;94367.06;5006300;28;20037;-77
2021/10/08 08:48:10;;;;;;;0.50;0.50;;;;;;;9.55;70.73;94383.53;5003676;28;20049;-77
2021/10/08 08:50:45;;;;;;;0.88;0.70;;;;;;;9.65;72.00;94389.47;5013031;28;20052;-77
2021/10/08 08:53:12;;;;;;;0.40;0.40;;;;;;;9.72;71.70;94381.13;5013674;28;20040;-76
2021/10/08 08:55:38;;;;;;;0.68;0.50;;;;;;;9.52;71.43;94378.81;4996681;28;20025;-74
2021/10/08 08:58:04;;;;;;;0.68;0.68;;;;;;;9.44;72.26;94367.78;5011413;28;20099;-72
2021/10/08 09:00:30;;;;;;;0.60;0.60;;;;;;;9.45;72.16;94350.78;5008107;28;20056;-76
2021/10/08 09:03:01;;;;;;;0.80;0.70;;;;;;;9.50;72.54;94370.34;5016944;28;20077;-77
2021/10/08 09:05:30;;;;;;;0.93;0.70;;;;;;;9.54;72.25;94348.22;5009700;28;20103;-77
2021/10/08 09:07:58;;;;;;;1.42;1.00;;;;;;;9.45;73.23;94358.75;5008776;28;20053;-77
2021/10/08 09:10:29;;;;;;;2.65;0.80;;;;;;;9.22;73.95;94351.72;5002298;28;20037;-72
2021/10/08 09:12:56;;;;;;;1.50;0.73;;;;;;;9.08;74.12;94326.97;5016273;28;20045;-75
2021/10/08 09:15:24;;;;;;;0.90;0.70;;;;;;;8.93;74.69;94316.59;4999010;28;20044;-76
2021/10/08 09:18:05;;;;;;;1.92;1.13;;;;;;;9.12;74.64;94343.13;5013640;28;20037;-76
2021/10/08 09:20:30;;;;;;;1.52;0.90;;;;;;;8.92;75.11;94341.56;5008591;28;20471;-77
2021/10/08 09:22:56;;;;;;;1.30;0.80;;;;;;;9.16;74.62;94350.22;5009162;28;20049;-77
2021/10/08 09:25:33;;;;;;;0.80;0.70;;;;;;;9.17;74.08;94341.19;5012038;28;20621;-74
2021/10/08 09:28:11;;;;;;;2.10;0.80;;;;;;;9.25;74.01;94326.44;5014213;28;20463;-76
2021/10/08 09:30:44;;;;;;;1.95;1.00;;;;;;;9.23;73.80;94349.84;5012232;28;20056;-76
2021/10/08 09:33:13;;;;;;;3.17;1.45;;;;;;;9.25;74.54;94348.47;5007537;28;20037;-75
2021/10/08 09:35:39;;;;;;;1.40;1.00;;;;;;;9.23;74.52;94350.63;5010974;28;20150;-77
2021/10/08 09:38:09;;;;;;;2.08;1.38;;;;;;;8.98;74.68;94329.78;5005108;28;20026;-77
2021/10/08 09:41:01;;;;;;;2.35;0.88;;;;;;;9.21;74.28;94347.47;5005457;28;20036;-72
2021/10/08 09:43:30;;;;;;;1.45;1.00;;;;;;;8.71;74.74;94338.41;5010907;28;20040;-77
2021/10/08 09:45:57;;;;;;;1.13;1.02;;;;;;;9.01;74.43;94355.72;5000329;28;20124;-73
2021/10/08 09:48:38;;;;;;;0.98;0.68;;;;;;;8.92;74.41;94357.47;5012556;28;20069;-76
2021/10/08 09:51:28;;;;;;;1.75;1.00;;;;;;;8.87;75.05;94354.91;5013074;28;20033;-76
2021/10/08 09:53:55;;;;;;;2.25;1.08;;;;;;;8.97;74.82;94358.19;5006385;28;20049;-72
2021/10/08 09:56:41;;;;;;;1.50;0.88;;;;;;;9.07;75.07;94354.56;5013979;28;20049;-77
2021/10/08 09:59:12;;;;;;;1.90;1.13;;;;;;;9.07;74.72;94351.13;5009009;28;20104;-77
2021/10/08 10:01:39;;;;;;;4.15;1.15;;;;;;;9.13;74.34;94358.75;5012331;28;20052;-76
2021/10/08 10:04:08;;;;;;;3.08;1.10;;;;;;;8.91;74.45;94332.81;5015880;28;20507;-76
2021/10/08 10:06:33;;;;;;;1.58;1.27;;;;;;;8.73;75.51;94354.06;5009786;28;20539;-77
2021/10/08 10:09:02;;;;;;;1.23;0.80;;;;;;;8.99;75.27;94341.97;5007569;28;20231;-72
2021/10/08 10:11:28;;;;;;;2.13;1.10;;;;;;;9.10;74.75;94346.03;5007184;28;20030;-76
2021/10/08 10:13:58;;;;;;;1.42;0.98;;;;;;;9.04;74.91;94344.56;5013085;28;20456;-76
2021/10/08 10:16:31;;;;;;;1.00;0.80;;;;;;;9.00;74.19;94319.66;5014755;28;20033;-75
2021/10/08 10:18:59;;;;;;;1.10;0.60;;;;;;;8.94;74.70;94326.16;5009392;28;20049;-75
2021/10/08 10:21:30;;;;;;;0.73;0.73;;;;;;;8.61;75.41;94321.91;5009027;28;20112;-76
2021/10/08 10:23:58;;;;;;;1.73;0.75;;;;;;;8.74;75.53;94318.50;5011381;28;20389;-77
2021/10/08 10:26:26;;;;;;;0.93;0.80;;;;;;;8.48;76.20;94300.31;5006523;28;20037;-76
2021/10/08 10:28:53;;;;;;;0.68;0.68;;;;;;;8.72;76.03;94318.00;4994008;28;20495;-77
2021/10/08 10:31:20;;;;;;;0.75;0.75;;;;;;;8.96;75.41;94310.72;5012311;28;20391;-77
2021/10/08 10:33:48;;;;;;;0.60;0.60;;;;;;;8.81;74.72;94276.47;5007785;28;20164;-76
2021/10/08 10:36:25;;;;;;;0.65;0.60;;;;;;;8.96;73.69;94297.44;5000550;28;20037;-75
2021/10/08 10:38:51;;;;;;;1.58;0.90;;;;;;;8.98;73.35;94285.47;5005491;28;20071;-77
2021/10/08 10:41:17;;;;;;;1.15;0.80;;;;;;;9.18;72.93;94279.06;5011803;28;20483;-77
2021/10/08 10:43:51;;;;;;;1.05;0.77;;;;;;;9.06;72.32;94268.09;5008563;28;20383;-76
2021/10/08 10:49:18;;;;;;;1.02;0.80;;;;;;;9.35;71.96;94294.41;5012281;28;20052;-75
2021/10/08 10:51:58;;;;;;;1.58;0.88;;;;;;;9.45;71.54;94295.03;5006303;28;20034;-76
2021/10/08 10:54:53;;;;;;;3.08;1.50;;;;;;;9.42;71.42;94287.66;5011938;28;20646;-77
2021/10/08 10:57:19;;;;;;;3.53;1.00;;;;;;;9.13;71.35;94302.25;5007059;28;20041;-77
2021/10/08 10:59:46;;;;;;;0.75;0.70;;;;;;;9.05;71.43;94295.69;5018388;28;20045;-76
2021/10/08 11:02:12;;;;;;;0.88;0.70;;;;;;;9.00;71.82;94306.41;5010386;28;20508;-76
2021/10/08 11:04:39;;;;;;;2.28;0.93;;;;;;;9.14;71.86;94288.69;5010352;28;20422;-75
2021/10/08 11:07:06;;;;;;;2.40;1.00;;;;;;;9.33;72.18;94294.72;5006564;28;20384;-75
2021/10/08 11:09:32;;;;;;;0.50;0.50;;;;;;;9.33;71.25;94280.66;5010275;28;20041;-77
2021/10/08 11:12:34;;;;;;;1.17;0.63;;;;;;;9.47;71.60;94297.38;5016596;28;20559;-77
2021/10/08 11:15:18;;;;;;;0.65;0.65;;;;;;;9.53;71.45;94306.06;5004988;28;20527;-72
2021/10/08 11:17:48;;;;;;;0.93;0.60;;;;;;;9.33;71.43;94302.69;5011735;28;20403;-76
2021/10/08 11:20:32;;;;;;;2.05;0.80;;;;;;;9.22;72.39;94300.50;5009860;28;20057;-74
2021/10/08 11:23:02;;;;;;;1.45;0.70;;;;;;;8.97;72.89;94293.72;5011001;28;20095;-76
2021/10/08 11:25:31;;;;;;;0.50;0.50;;;;;;;8.87;73.67;94288.59;5010081;28;20086;-75
2021/10/08 11:27:56;;;;;;;0.90;0.70;;;;;;;8.78;73.86;94295.63;5011828;28;20036;-78
2021/10/08 11:30:25;;;;;;;0.93;0.77;;;;;;;8.87;74.30;94289.38;5008108;28;20037;-75
2021/10/08 11:32:53;;;;;;;1.85;1.02;;;;;;;8.92;74.21;94281.34;5015071;28;20092;-77
2021/10/08 11:35:29;;;;;;;1.02;0.80;;;;;;;9.01;74.13;94306.13;5005639;28;20044;-76
2021/10/08 11:37:54;;;;;;;1.30;0.80;;;;;;;9.01;74.10;94282.22;5016150;28;20049;-76
2021/10/08 11:40:34;;;;;;;1.85;0.70;;;;;;;9.25;73.56;94283.97;5011707;28;20447;-76
2021/10/08 11:43:07;;;;;;;2.05;0.80;;;;;;;9.21;72.95;94275.03;5011657;28;20053;-76
2021/10/08 11:45:53;;;;;;;0.70;0.70;;;;;;;9.46;72.28;94295.81;5011294;28;20033;-73
2021/10/08 11:48:23;;;;;;;3.30;0.90;;;;;;;9.57;72.39;94286.59;5004239;28;20120;-76